Galveston, TX

7:39 AM CDT on July 25, 2016 (GMT -0500)
Galveston.com | | Change Station

Elev 36 ft 29.31 °N, 94.79 °W | Updated 9 seconds ago

Clear
Clear
84.7 °F
Feels Like 96 °F
N
0.0
Wind Variable Wind from WSW
Gusts 6.0 mph

Today
High -- | Low -- °F
--% Chance of Precip.
Yesterday
High -- | Low -- °F
Precip. -- in
Pressure 29.96 in
Visibility 10.0 miles
Clouds Clear
Heat Index 96 °F
Dew Point 78 °F
Humidity 81%
Rainfall 0.00 in
Snow Depth Not available.
6:35 AM 8:15 PM
Waning Gibbous, 66% visible
METAR KGLS 251152Z 28006KT 10SM CLR 28/26 A2995 RMK AO2 SLP143 T02830256 10294 20278 53011
Pressure 29.96 in
Visibility 10.0 miles
Clouds Clear
Heat Index 96 °F
Dew Point 78 °F
Humidity 81%
Rainfall 0.00 in
Snow Depth Not available.
6:35 AM 8:15 PM
Waning Gibbous, 66% visible
METAR KGLS 251152Z 28006KT 10SM CLR 28/26 A2995 RMK AO2 SLP143 T02830256 10294 20278 53011

10-Day Weather Forecast

Almanac

Astronomy

Jul. 25, 2016 Rise Set
Actual Time
Civil Twilight
Nautical Twilight
Astronomical Twilight
Moon
Length of Visible Light
Length of Day
Tomorrow will be .
, % of the Moon is Illuminated

Today's Extremes

State Highs State Lows

Community

WunderPhotos

Upload Photos

1,927,296 photos uploaded!

WunderBlog® & News

Nearby

Air Quality

  Air Quality AQ Index Pollutant
Not available.

Snow Depth

Station Depth Elevation

Earthquake Activity

City Distance Mag. Time & Date
Minimum magnitude displayed is 2.5.

Coastal Water Temperatures

Place Temperature

Stations

Nearby Weather Stations

Station Location Temp. Windchill Dew Point Humidity Wind Precip. Elev Updated Type
                   

Watches & Warnings

There are currently no watches in effect.